sensor_id;sensor_type;location;lat;lon;timestamp;P1;durP1;ratioP1;P2;durP2;ratioP2
6077;SDS011;3067;49.470;10.394;2024-03-23T00:51:43;8.93;;;7.60;;
6077;SDS011;3067;49.470;10.394;2024-03-23T00:54:09;8.77;;;7.10;;
6077;SDS011;3067;49.470;10.394;2024-03-23T00:56:36;8.37;;;6.87;;
6077;SDS011;3067;49.470;10.394;2024-03-23T00:59:02;10.10;;;6.80;;
6077;SDS011;3067;49.470;10.394;2024-03-23T01:01:29;8.50;;;7.60;;
6077;SDS011;3067;49.470;10.394;2024-03-23T01:03:56;10.40;;;6.60;;
6077;SDS011;3067;49.470;10.394;2024-03-23T01:06:23;7.50;;;6.70;;
6077;SDS011;3067;49.470;10.394;2024-03-23T01:08:50;9.37;;;7.10;;
6077;SDS011;3067;49.470;10.394;2024-03-23T01:11:17;9.10;;;7.33;;
6077;SDS011;3067;49.470;10.394;2024-03-23T01:13:43;9.53;;;7.70;;
6077;SDS011;3067;49.470;10.394;2024-03-23T01:16:10;8.30;;;7.57;;
6077;SDS011;3067;49.470;10.394;2024-03-23T01:18:36;9.63;;;7.57;;
6077;SDS011;3067;49.470;10.394;2024-03-23T01:21:04;10.93;;;7.50;;
6077;SDS011;3067;49.470;10.394;2024-03-23T01:23:30;10.60;;;7.50;;
6077;SDS011;3067;49.470;10.394;2024-03-23T01:25:58;8.87;;;7.17;;
6077;SDS011;3067;49.470;10.394;2024-03-23T01:28:24;10.67;;;7.20;;
6077;SDS011;3067;49.470;10.394;2024-03-23T01:30:51;9.30;;;7.10;;
6077;SDS011;3067;49.470;10.394;2024-03-23T01:33:17;10.87;;;7.97;;
6077;SDS011;3067;49.470;10.394;2024-03-23T01:35:45;9.77;;;7.97;;
6077;SDS011;3067;49.470;10.394;2024-03-23T01:38:11;18.03;;;7.90;;
6077;SDS011;3067;49.470;10.394;2024-03-23T01:40:38;9.73;;;7.67;;
6077;SDS011;3067;49.470;10.394;2024-03-23T01:43:06;9.17;;;7.93;;
6077;SDS011;3067;49.470;10.394;2024-03-23T01:45:34;10.40;;;7.47;;
6077;SDS011;3067;49.470;10.394;2024-03-23T01:48:01;8.70;;;7.90;;
6077;SDS011;3067;49.470;10.394;2024-03-23T01:50:28;10.30;;;8.23;;
6077;SDS011;3067;49.470;10.394;2024-03-23T01:52:58;11.43;;;8.20;;
6077;SDS011;3067;49.470;10.394;2024-03-23T01:55:26;23.80;;;8.40;;
6077;SDS011;3067;49.470;10.394;2024-03-23T01:57:52;9.13;;;8.07;;
6077;SDS011;3067;49.470;10.394;2024-03-23T02:00:24;9.00;;;7.17;;
6077;SDS011;3067;49.470;10.394;2024-03-23T02:02:50;8.87;;;7.70;;
6077;SDS011;3067;49.470;10.394;2024-03-23T02:05:17;9.77;;;8.10;;
6077;SDS011;3067;49.470;10.394;2024-03-23T02:07:43;12.07;;;8.00;;
6077;SDS011;3067;49.470;10.394;2024-03-23T02:10:10;9.50;;;7.80;;
6077;SDS011;3067;49.470;10.394;2024-03-23T02:12:38;10.27;;;7.93;;
6077;SDS011;3067;49.470;10.394;2024-03-23T02:15:06;12.80;;;9.27;;
6077;SDS011;3067;49.470;10.394;2024-03-23T02:17:35;9.80;;;8.80;;
6077;SDS011;3067;49.470;10.394;2024-03-23T02:20:02;9.50;;;7.37;;
6077;SDS011;3067;49.470;10.394;2024-03-23T02:22:35;9.27;;;7.33;;
6077;SDS011;3067;49.470;10.394;2024-03-23T02:25:05;6.90;;;6.30;;
6077;SDS011;3067;49.470;10.394;2024-03-23T02:27:31;7.87;;;6.13;;
6077;SDS011;3067;49.470;10.394;2024-03-23T02:29:59;7.00;;;6.30;;
6077;SDS011;3067;49.470;10.394;2024-03-23T02:32:26;9.80;;;6.33;;
6077;SDS011;3067;49.470;10.394;2024-03-23T02:34:53;11.50;;;5.50;;
6077;SDS011;3067;49.470;10.394;2024-03-23T02:37:19;6.60;;;5.90;;
6077;SDS011;3067;49.470;10.394;2024-03-23T02:39:46;11.07;;;6.53;;
6077;SDS011;3067;49.470;10.394;2024-03-23T02:42:14;9.17;;;6.17;;
6077;SDS011;3067;49.470;10.394;2024-03-23T02:44:42;9.33;;;5.67;;
6077;SDS011;3067;49.470;10.394;2024-03-23T02:47:08;9.23;;;6.23;;
6077;SDS011;3067;49.470;10.394;2024-03-23T02:49:36;7.80;;;7.00;;
6077;SDS011;3067;49.470;10.394;2024-03-23T02:52:02;7.73;;;6.33;;
6077;SDS011;3067;49.470;10.394;2024-03-23T02:54:29;8.50;;;7.10;;
6077;SDS011;3067;49.470;10.394;2024-03-23T02:56:55;6.83;;;6.13;;
6077;SDS011;3067;49.470;10.394;2024-03-23T02:59:24;9.33;;;6.77;;
6077;SDS011;3067;49.470;10.394;2024-03-23T03:01:50;11.80;;;7.10;;
6077;SDS011;3067;49.470;10.394;2024-03-23T03:04:17;8.03;;;6.70;;
6077;SDS011;3067;49.470;10.394;2024-03-23T03:06:44;9.30;;;7.60;;
6077;SDS011;3067;49.470;10.394;2024-03-23T03:09:13;9.27;;;6.60;;
6077;SDS011;3067;49.470;10.394;2024-03-23T03:11:39;9.47;;;6.37;;
6077;SDS011;3067;49.470;10.394;2024-03-23T03:14:06;8.10;;;6.67;;
6077;SDS011;3067;49.470;10.394;2024-03-23T03:16:34;10.30;;;7.20;;
6077;SDS011;3067;49.470;10.394;2024-03-23T03:19:01;10.07;;;7.30;;
6077;SDS011;3067;49.470;10.394;2024-03-23T03:21:27;7.83;;;6.60;;
6077;SDS011;3067;49.470;10.394;2024-03-23T03:23:55;8.53;;;6.10;;
6077;SDS011;3067;49.470;10.394;2024-03-23T03:26:21;7.50;;;5.87;;
6077;SDS011;3067;49.470;10.394;2024-03-23T03:28:49;7.40;;;6.10;;
6077;SDS011;3067;49.470;10.394;2024-03-23T03:31:16;8.20;;;6.80;;
6077;SDS011;3067;49.470;10.394;2024-03-23T03:33:44;9.23;;;6.80;;
6077;SDS011;3067;49.470;10.394;2024-03-23T03:36:10;8.60;;;7.00;;
6077;SDS011;3067;49.470;10.394;2024-03-23T03:38:38;8.40;;;6.57;;
6077;SDS011;3067;49.470;10.394;2024-03-23T03:41:04;7.33;;;6.50;;
6077;SDS011;3067;49.470;10.394;2024-03-23T03:43:32;9.50;;;6.37;;
6077;SDS011;3067;49.470;10.394;2024-03-23T03:45:59;8.33;;;6.30;;
6077;SDS011;3067;49.470;10.394;2024-03-23T03:48:27;7.43;;;6.50;;
6077;SDS011;3067;49.470;10.394;2024-03-23T03:50:55;8.87;;;6.60;;
6077;SDS011;3067;49.470;10.394;2024-03-23T03:53:22;10.10;;;6.50;;
6077;SDS011;3067;49.470;10.394;2024-03-23T03:55:49;8.27;;;6.77;;
6077;SDS011;3067;49.470;10.394;2024-03-23T03:58:16;9.10;;;6.83;;
6077;SDS011;3067;49.470;10.394;2024-03-23T04:00:43;7.57;;;6.87;;
6077;SDS011;3067;49.470;10.394;2024-03-23T04:03:10;11.63;;;7.90;;
6077;SDS011;3067;49.470;10.394;2024-03-23T04:05:36;6.97;;;6.37;;
6077;SDS011;3067;49.470;10.394;2024-03-23T04:08:06;7.47;;;6.10;;
6077;SDS011;3067;49.470;10.394;2024-03-23T04:10:33;9.90;;;5.50;;
6077;SDS011;3067;49.470;10.394;2024-03-23T04:13:00;8.00;;;5.03;;
6077;SDS011;3067;49.470;10.394;2024-03-23T04:15:26;10.10;;;5.17;;
6077;SDS011;3067;49.470;10.394;2024-03-23T04:17:53;5.00;;;4.60;;
6077;SDS011;3067;49.470;10.394;2024-03-23T04:20:19;5.60;;;4.60;;
6077;SDS011;3067;49.470;10.394;2024-03-23T04:22:46;10.00;;;4.03;;
6077;SDS011;3067;49.470;10.394;2024-03-23T04:25:14;5.00;;;4.53;;
6077;SDS011;3067;49.470;10.394;2024-03-23T04:27:41;5.80;;;5.30;;
6077;SDS011;3067;49.470;10.394;2024-03-23T04:30:07;5.10;;;4.70;;
6077;SDS011;3067;49.470;10.394;2024-03-23T04:32:36;5.40;;;4.90;;
6077;SDS011;3067;49.470;10.394;2024-03-23T04:35:02;5.70;;;4.80;;
6077;SDS011;3067;49.470;10.394;2024-03-23T04:37:34;4.97;;;4.50;;
6077;SDS011;3067;49.470;10.394;2024-03-23T04:40:02;11.07;;;5.70;;
6077;SDS011;3067;49.470;10.394;2024-03-23T04:42:30;5.93;;;5.33;;
6077;SDS011;3067;49.470;10.394;2024-03-23T04:44:58;6.60;;;6.00;;
6077;SDS011;3067;49.470;10.394;2024-03-23T04:47:25;6.60;;;6.03;;
6077;SDS011;3067;49.470;10.394;2024-03-23T04:49:52;7.30;;;5.97;;
6077;SDS011;3067;49.470;10.394;2024-03-23T04:52:19;7.03;;;5.80;;
6077;SDS011;3067;49.470;10.394;2024-03-23T04:54:46;6.60;;;5.90;;
6077;SDS011;3067;49.470;10.394;2024-03-23T04:57:13;6.67;;;6.07;;
6077;SDS011;3067;49.470;10.394;2024-03-23T04:59:43;7.20;;;6.17;;
6077;SDS011;3067;49.470;10.394;2024-03-23T05:02:09;6.07;;;5.33;;
6077;SDS011;3067;49.470;10.394;2024-03-23T05:04:36;9.33;;;6.47;;
6077;SDS011;3067;49.470;10.394;2024-03-23T05:07:02;10.67;;;6.03;;
6077;SDS011;3067;49.470;10.394;2024-03-23T05:09:30;6.90;;;5.87;;
6077;SDS011;3067;49.470;10.394;2024-03-23T05:11:58;7.63;;;5.93;;
6077;SDS011;3067;49.470;10.394;2024-03-23T05:14:25;6.57;;;5.87;;
6077;SDS011;3067;49.470;10.394;2024-03-23T05:16:53;8.60;;;6.80;;
6077;SDS011;3067;49.470;10.394;2024-03-23T05:19:21;9.10;;;7.00;;
6077;SDS011;3067;49.470;10.394;2024-03-23T05:21:47;8.07;;;6.47;;
6077;SDS011;3067;49.470;10.394;2024-03-23T05:24:14;6.53;;;5.93;;
6077;SDS011;3067;49.470;10.394;2024-03-23T05:26:40;7.37;;;6.53;;
6077;SDS011;3067;49.470;10.394;2024-03-23T05:29:08;10.40;;;6.60;;
6077;SDS011;3067;49.470;10.394;2024-03-23T05:31:36;12.20;;;7.57;;
6077;SDS011;3067;49.470;10.394;2024-03-23T05:34:05;10.67;;;7.27;;
6077;SDS011;3067;49.470;10.394;2024-03-23T05:36:31;10.90;;;7.80;;
6077;SDS011;3067;49.470;10.394;2024-03-23T05:38:58;12.30;;;8.70;;
6077;SDS011;3067;49.470;10.394;2024-03-23T05:41:24;15.43;;;9.00;;
6077;SDS011;3067;49.470;10.394;2024-03-23T05:43:51;10.80;;;7.93;;
6077;SDS011;3067;49.470;10.394;2024-03-23T05:46:18;15.27;;;9.07;;
6077;SDS011;3067;49.470;10.394;2024-03-23T05:48:45;9.77;;;8.33;;
6077;SDS011;3067;49.470;10.394;2024-03-23T05:51:12;12.97;;;9.10;;
6077;SDS011;3067;49.470;10.394;2024-03-23T05:53:39;17.07;;;9.27;;
6077;SDS011;3067;49.470;10.394;2024-03-23T05:56:06;28.03;;;9.23;;
6077;SDS011;3067;49.470;10.394;2024-03-23T05:58:33;18.93;;;9.30;;
6077;SDS011;3067;49.470;10.394;2024-03-23T06:00:59;14.10;;;9.27;;
6077;SDS011;3067;49.470;10.394;2024-03-23T06:03:28;17.20;;;9.83;;
6077;SDS011;3067;49.470;10.394;2024-03-23T06:05:55;14.30;;;9.57;;
6077;SDS011;3067;49.470;10.394;2024-03-23T06:08:23;17.90;;;8.87;;
6077;SDS011;3067;49.470;10.394;2024-03-23T06:10:50;13.60;;;8.40;;
6077;SDS011;3067;49.470;10.394;2024-03-23T06:13:17;12.63;;;8.43;;
6077;SDS011;3067;49.470;10.394;2024-03-23T06:15:43;16.17;;;9.70;;
6077;SDS011;3067;49.470;10.394;2024-03-23T06:18:11;12.40;;;7.77;;
6077;SDS011;3067;49.470;10.394;2024-03-23T06:20:37;13.33;;;8.60;;
6077;SDS011;3067;49.470;10.394;2024-03-23T06:23:05;12.03;;;8.37;;
6077;SDS011;3067;49.470;10.394;2024-03-23T06:25:32;11.40;;;7.80;;
6077;SDS011;3067;49.470;10.394;2024-03-23T06:27:59;11.50;;;7.60;;
6077;SDS011;3067;49.470;10.394;2024-03-23T06:30:27;8.90;;;6.67;;
6077;SDS011;3067;49.470;10.394;2024-03-23T06:32:54;8.33;;;7.13;;
6077;SDS011;3067;49.470;10.394;2024-03-23T06:35:21;8.40;;;6.80;;
6077;SDS011;3067;49.470;10.394;2024-03-23T06:37:48;8.20;;;7.07;;
6077;SDS011;3067;49.470;10.394;2024-03-23T06:40:14;7.37;;;5.53;;
6077;SDS011;3067;49.470;10.394;2024-03-23T06:42:43;10.10;;;7.20;;
6077;SDS011;3067;49.470;10.394;2024-03-23T06:45:09;10.17;;;7.10;;
6077;SDS011;3067;49.470;10.394;2024-03-23T06:47:36;12.67;;;7.20;;
6077;SDS011;3067;49.470;10.394;2024-03-23T06:50:02;11.03;;;6.23;;
6077;SDS011;3067;49.470;10.394;2024-03-23T06:52:30;9.63;;;6.57;;
6077;SDS011;3067;49.470;10.394;2024-03-23T06:54:57;9.30;;;6.50;;
6077;SDS011;3067;49.470;10.394;2024-03-23T06:57:24;11.63;;;6.50;;
6077;SDS011;3067;49.470;10.394;2024-03-23T06:59:52;9.87;;;7.33;;
6077;SDS011;3067;49.470;10.394;2024-03-23T07:02:19;10.97;;;6.57;;
6077;SDS011;3067;49.470;10.394;2024-03-23T07:04:45;9.90;;;7.40;;
6077;SDS011;3067;49.470;10.394;2024-03-23T07:07:12;12.67;;;7.30;;
6077;SDS011;3067;49.470;10.394;2024-03-23T07:09:38;8.00;;;6.90;;
6077;SDS011;3067;49.470;10.394;2024-03-23T07:12:06;10.43;;;6.87;;
6077;SDS011;3067;49.470;10.394;2024-03-23T07:14:32;8.90;;;6.87;;
6077;SDS011;3067;49.470;10.394;2024-03-23T07:17:00;7.40;;;6.10;;
6077;SDS011;3067;49.470;10.394;2024-03-23T07:19:26;9.80;;;6.77;;
6077;SDS011;3067;49.470;10.394;2024-03-23T07:21:54;8.70;;;6.47;;
6077;SDS011;3067;49.470;10.394;2024-03-23T07:24:20;9.07;;;6.60;;
6077;SDS011;3067;49.470;10.394;2024-03-23T07:26:47;11.97;;;6.20;;
6077;SDS011;3067;49.470;10.394;2024-03-23T07:29:13;10.53;;;6.57;;
6077;SDS011;3067;49.470;10.394;2024-03-23T07:31:40;6.87;;;5.90;;
6077;SDS011;3067;49.470;10.394;2024-03-23T07:34:08;7.40;;;6.47;;
6077;SDS011;3067;49.470;10.394;2024-03-23T07:36:35;7.10;;;5.50;;
6077;SDS011;3067;49.470;10.394;2024-03-23T07:39:01;7.20;;;4.67;;
6077;SDS011;3067;49.470;10.394;2024-03-23T07:41:29;5.40;;;4.73;;
6077;SDS011;3067;49.470;10.394;2024-03-23T07:43:55;3.47;;;3.17;;
6077;SDS011;3067;49.470;10.394;2024-03-23T07:46:23;3.43;;;3.10;;
6077;SDS011;3067;49.470;10.394;2024-03-23T07:48:50;2.73;;;2.53;;
6077;SDS011;3067;49.470;10.394;2024-03-23T07:51:19;1.80;;;1.70;;
6077;SDS011;3067;49.470;10.394;2024-03-23T07:53:46;1.70;;;1.60;;
6077;SDS011;3067;49.470;10.394;2024-03-23T07:56:13;1.93;;;1.73;;
6077;SDS011;3067;49.470;10.394;2024-03-23T07:58:41;2.50;;;2.40;;
6077;SDS011;3067;49.470;10.394;2024-03-23T08:01:09;2.57;;;2.37;;
6077;SDS011;3067;49.470;10.394;2024-03-23T08:03:35;2.23;;;2.13;;
6077;SDS011;3067;49.470;10.394;2024-03-23T08:06:06;2.83;;;2.70;;
6077;SDS011;3067;49.470;10.394;2024-03-23T08:08:35;2.93;;;2.83;;
6077;SDS011;3067;49.470;10.394;2024-03-23T08:11:02;2.40;;;2.30;;
6077;SDS011;3067;49.470;10.394;2024-03-23T08:13:29;2.80;;;2.70;;
6077;SDS011;3067;49.470;10.394;2024-03-23T08:15:56;2.50;;;2.40;;
6077;SDS011;3067;49.470;10.394;2024-03-23T08:18:22;2.23;;;2.03;;
6077;SDS011;3067;49.470;10.394;2024-03-23T08:20:56;2.47;;;2.27;;
6077;SDS011;3067;49.470;10.394;2024-03-23T08:23:23;1.90;;;1.87;;
6077;SDS011;3067;49.470;10.394;2024-03-23T08:25:52;1.93;;;1.83;;
6077;SDS011;3067;49.470;10.394;2024-03-23T08:28:22;2.50;;;2.40;;
6077;SDS011;3067;49.470;10.394;2024-03-23T08:30:49;2.17;;;2.17;;
6077;SDS011;3067;49.470;10.394;2024-03-23T08:33:16;2.20;;;2.10;;
6077;SDS011;3067;49.470;10.394;2024-03-23T08:35:43;2.80;;;2.70;;
6077;SDS011;3067;49.470;10.394;2024-03-23T08:38:19;2.70;;;2.60;;
6077;SDS011;3067;49.470;10.394;2024-03-23T08:40:46;2.20;;;2.10;;
6077;SDS011;3067;49.470;10.394;2024-03-23T08:43:13;2.60;;;2.50;;
6077;SDS011;3067;49.470;10.394;2024-03-23T08:45:40;2.13;;;2.07;;
6077;SDS011;3067;49.470;10.394;2024-03-23T08:48:06;4.83;;;4.53;;
6077;SDS011;3067;49.470;10.394;2024-03-23T08:50:34;2.33;;;2.23;;
6077;SDS011;3067;49.470;10.394;2024-03-23T08:53:00;2.33;;;2.23;;
6077;SDS011;3067;49.470;10.394;2024-03-23T08:55:28;2.60;;;2.50;;
6077;SDS011;3067;49.470;10.394;2024-03-23T08:57:54;1.80;;;1.70;;
6077;SDS011;3067;49.470;10.394;2024-03-23T09:00:22;1.80;;;1.80;;
6077;SDS011;3067;49.470;10.394;2024-03-23T09:02:48;2.40;;;2.30;;
6077;SDS011;3067;49.470;10.394;2024-03-23T09:05:16;3.40;;;2.37;;
6077;SDS011;3067;49.470;10.394;2024-03-23T09:07:42;2.30;;;2.30;;
6077;SDS011;3067;49.470;10.394;2024-03-23T09:10:09;1.83;;;1.33;;
6077;SDS011;3067;49.470;10.394;2024-03-23T09:12:35;0.90;;;0.90;;
6077;SDS011;3067;49.470;10.394;2024-03-23T09:15:03;0.80;;;0.80;;
6077;SDS011;3067;49.470;10.394;2024-03-23T09:17:31;1.03;;;0.93;;
6077;SDS011;3067;49.470;10.394;2024-03-23T09:19:58;0.90;;;0.90;;
6077;SDS011;3067;49.470;10.394;2024-03-23T09:22:24;1.10;;;1.00;;
6077;SDS011;3067;49.470;10.394;2024-03-23T09:24:51;0.80;;;0.80;;
6077;SDS011;3067;49.470;10.394;2024-03-23T09:27:17;0.90;;;0.90;;
6077;SDS011;3067;49.470;10.394;2024-03-23T09:29:44;0.80;;;0.80;;
6077;SDS011;3067;49.470;10.394;2024-03-23T09:32:10;0.90;;;0.90;;
6077;SDS011;3067;49.470;10.394;2024-03-23T09:34:39;1.27;;;1.27;;
6077;SDS011;3067;49.470;10.394;2024-03-23T09:37:05;1.10;;;1.10;;
6077;SDS011;3067;49.470;10.394;2024-03-23T09:39:32;1.10;;;1.10;;
6077;SDS011;3067;49.470;10.394;2024-03-23T09:41:58;1.50;;;1.43;;
6077;SDS011;3067;49.470;10.394;2024-03-23T09:44:25;1.40;;;1.40;;
6077;SDS011;3067;49.470;10.394;2024-03-23T09:46:54;1.70;;;1.60;;
6077;SDS011;3067;49.470;10.394;2024-03-23T09:49:22;1.30;;;1.30;;
6077;SDS011;3067;49.470;10.394;2024-03-23T09:51:49;1.17;;;1.17;;
6077;SDS011;3067;49.470;10.394;2024-03-23T09:54:16;1.30;;;1.30;;
6077;SDS011;3067;49.470;10.394;2024-03-23T09:56:42;1.10;;;1.10;;
6077;SDS011;3067;49.470;10.394;2024-03-23T09:59:09;1.30;;;1.20;;
6077;SDS011;3067;49.470;10.394;2024-03-23T10:01:35;1.33;;;1.33;;
6077;SDS011;3067;49.470;10.394;2024-03-23T10:04:03;1.37;;;1.30;;
6077;SDS011;3067;49.470;10.394;2024-03-23T10:06:29;1.50;;;1.50;;
6077;SDS011;3067;49.470;10.394;2024-03-23T10:08:57;1.40;;;1.40;;
6077;SDS011;3067;49.470;10.394;2024-03-23T10:11:24;2.43;;;2.30;;
6077;SDS011;3067;49.470;10.394;2024-03-23T10:13:52;1.90;;;1.80;;
6077;SDS011;3067;49.470;10.394;2024-03-23T10:16:22;1.87;;;1.70;;
6077;SDS011;3067;49.470;10.394;2024-03-23T10:18:52;1.80;;;1.70;;
6077;SDS011;3067;49.470;10.394;2024-03-23T10:21:18;2.13;;;1.60;;
6077;SDS011;3067;49.470;10.394;2024-03-23T10:23:45;2.60;;;2.20;;
6077;SDS011;3067;49.470;10.394;2024-03-23T10:26:13;1.90;;;1.90;;
6077;SDS011;3067;49.470;10.394;2024-03-23T10:28:52;2.10;;;1.90;;
6077;SDS011;3067;49.470;10.394;2024-03-23T10:31:26;2.10;;;2.00;;
6077;SDS011;3067;49.470;10.394;2024-03-23T10:33:53;2.60;;;2.40;;
6077;SDS011;3067;49.470;10.394;2024-03-23T10:36:20;1.87;;;1.77;;
6077;SDS011;3067;49.470;10.394;2024-03-23T10:38:47;2.80;;;2.60;;
6077;SDS011;3067;49.470;10.394;2024-03-23T10:41:16;2.43;;;2.20;;
6077;SDS011;3067;49.470;10.394;2024-03-23T10:43:44;4.00;;;1.87;;
6077;SDS011;3067;49.470;10.394;2024-03-23T10:46:11;2.60;;;2.40;;
6077;SDS011;3067;49.470;10.394;2024-03-23T10:48:39;2.47;;;2.27;;
6077;SDS011;3067;49.470;10.394;2024-03-23T10:51:05;2.43;;;2.23;;
6077;SDS011;3067;49.470;10.394;2024-03-23T10:53:34;6.83;;;2.23;;
6077;SDS011;3067;49.470;10.394;2024-03-23T10:56:02;2.03;;;1.93;;
6077;SDS011;3067;49.470;10.394;2024-03-23T10:58:32;2.90;;;2.70;;
6077;SDS011;3067;49.470;10.394;2024-03-23T11:01:02;2.70;;;2.50;;
6077;SDS011;3067;49.470;10.394;2024-03-23T11:03:30;2.90;;;2.23;;
6077;SDS011;3067;49.470;10.394;2024-03-23T11:06:01;5.33;;;2.80;;
6077;SDS011;3067;49.470;10.394;2024-03-23T11:08:33;2.90;;;2.63;;
6077;SDS011;3067;49.470;10.394;2024-03-23T11:11:17;2.73;;;2.33;;
6077;SDS011;3067;49.470;10.394;2024-03-23T11:13:46;3.07;;;2.40;;
6077;SDS011;3067;49.470;10.394;2024-03-23T11:16:16;4.10;;;2.90;;
6077;SDS011;3067;49.470;10.394;2024-03-23T11:18:47;3.20;;;2.77;;
6077;SDS011;3067;49.470;10.394;2024-03-23T11:21:51;5.43;;;2.93;;
6077;SDS011;3067;49.470;10.394;2024-03-23T11:24:19;6.57;;;3.13;;
6077;SDS011;3067;49.470;10.394;2024-03-23T11:26:46;6.17;;;2.50;;
6077;SDS011;3067;49.470;10.394;2024-03-23T11:29:14;7.77;;;2.87;;
6077;SDS011;3067;49.470;10.394;2024-03-23T11:31:45;3.70;;;2.70;;
6077;SDS011;3067;49.470;10.394;2024-03-23T11:34:13;3.70;;;2.53;;
6077;SDS011;3067;49.470;10.394;2024-03-23T11:36:40;4.60;;;2.50;;
6077;SDS011;3067;49.470;10.394;2024-03-23T11:39:13;4.67;;;2.70;;
6077;SDS011;3067;49.470;10.394;2024-03-23T11:41:47;3.03;;;2.70;;
6077;SDS011;3067;49.470;10.394;2024-03-23T11:44:17;2.87;;;2.67;;
6077;SDS011;3067;49.470;10.394;2024-03-23T11:46:44;4.30;;;2.90;;
6077;SDS011;3067;49.470;10.394;2024-03-23T11:49:22;6.80;;;3.27;;
6077;SDS011;3067;49.470;10.394;2024-03-23T11:51:48;6.23;;;2.87;;
6077;SDS011;3067;49.470;10.394;2024-03-23T11:54:16;6.13;;;3.00;;
6077;SDS011;3067;49.470;10.394;2024-03-23T11:56:53;4.97;;;2.90;;
6077;SDS011;3067;49.470;10.394;2024-03-23T11:59:33;3.37;;;2.93;;
6077;SDS011;3067;49.470;10.394;2024-03-23T12:02:00;4.30;;;3.27;;
6077;SDS011;3067;49.470;10.394;2024-03-23T12:04:32;3.37;;;2.10;;
6077;SDS011;3067;49.470;10.394;2024-03-23T12:07:14;3.43;;;2.60;;
6077;SDS011;3067;49.470;10.394;2024-03-23T12:09:43;3.10;;;2.70;;
6077;SDS011;3067;49.470;10.394;2024-03-23T12:12:12;4.30;;;2.60;;
6077;SDS011;3067;49.470;10.394;2024-03-23T12:14:43;5.33;;;2.80;;
6077;SDS011;3067;49.470;10.394;2024-03-23T12:17:10;6.47;;;2.73;;
6077;SDS011;3067;49.470;10.394;2024-03-23T12:19:37;5.40;;;2.60;;
6077;SDS011;3067;49.470;10.394;2024-03-23T12:22:04;4.27;;;2.70;;
6077;SDS011;3067;49.470;10.394;2024-03-23T12:24:32;5.80;;;2.50;;
6077;SDS011;3067;49.470;10.394;2024-03-23T12:26:59;4.20;;;2.80;;
6077;SDS011;3067;49.470;10.394;2024-03-23T12:29:28;7.03;;;2.50;;
6077;SDS011;3067;49.470;10.394;2024-03-23T12:31:56;4.83;;;3.00;;
6077;SDS011;3067;49.470;10.394;2024-03-23T12:34:25;5.13;;;2.33;;
6077;SDS011;3067;49.470;10.394;2024-03-23T12:36:51;2.80;;;2.47;;
6077;SDS011;3067;49.470;10.394;2024-03-23T12:39:18;11.10;;;3.07;;
6077;SDS011;3067;49.470;10.394;2024-03-23T12:41:45;6.60;;;2.60;;
6077;SDS011;3067;49.470;10.394;2024-03-23T12:44:13;6.03;;;2.77;;
6077;SDS011;3067;49.470;10.394;2024-03-23T12:46:40;2.93;;;2.50;;
6077;SDS011;3067;49.470;10.394;2024-03-23T12:49:09;3.00;;;2.40;;
6077;SDS011;3067;49.470;10.394;2024-03-23T12:51:35;4.93;;;2.60;;
6077;SDS011;3067;49.470;10.394;2024-03-23T12:54:02;8.40;;;2.50;;
6077;SDS011;3067;49.470;10.394;2024-03-23T12:56:28;3.10;;;2.43;;
6077;SDS011;3067;49.470;10.394;2024-03-23T12:58:55;2.77;;;2.23;;
6077;SDS011;3067;49.470;10.394;2024-03-23T13:01:22;3.80;;;2.40;;
6077;SDS011;3067;49.470;10.394;2024-03-23T13:03:49;4.67;;;2.40;;
6077;SDS011;3067;49.470;10.394;2024-03-23T13:06:17;4.60;;;2.70;;
6077;SDS011;3067;49.470;10.394;2024-03-23T13:08:45;4.80;;;2.80;;
6077;SDS011;3067;49.470;10.394;2024-03-23T13:11:11;2.83;;;2.53;;
6077;SDS011;3067;49.470;10.394;2024-03-23T13:13:38;4.93;;;2.33;;
6077;SDS011;3067;49.470;10.394;2024-03-23T13:16:04;8.13;;;2.53;;
6077;SDS011;3067;49.470;10.394;2024-03-23T13:18:32;5.00;;;2.50;;
6077;SDS011;3067;49.470;10.394;2024-03-23T13:20:58;3.43;;;2.07;;
6077;SDS011;3067;49.470;10.394;2024-03-23T13:23:26;3.33;;;2.33;;
6077;SDS011;3067;49.470;10.394;2024-03-23T13:25:53;12.90;;;2.97;;
6077;SDS011;3067;49.470;10.394;2024-03-23T13:28:21;5.27;;;2.77;;
6077;SDS011;3067;49.470;10.394;2024-03-23T13:30:51;7.97;;;2.50;;
6077;SDS011;3067;49.470;10.394;2024-03-23T13:33:18;2.97;;;2.20;;
6077;SDS011;3067;49.470;10.394;2024-03-23T13:35:51;6.83;;;2.30;;
6077;SDS011;3067;49.470;10.394;2024-03-23T13:38:19;4.37;;;2.50;;
6077;SDS011;3067;49.470;10.394;2024-03-23T13:40:51;6.57;;;1.93;;
6077;SDS011;3067;49.470;10.394;2024-03-23T13:43:18;3.67;;;2.03;;
6077;SDS011;3067;49.470;10.394;2024-03-23T13:45:44;2.93;;;2.10;;
6077;SDS011;3067;49.470;10.394;2024-03-23T13:48:12;3.33;;;2.00;;
6077;SDS011;3067;49.470;10.394;2024-03-23T13:50:38;6.83;;;2.40;;
6077;SDS011;3067;49.470;10.394;2024-03-23T13:53:05;2.73;;;2.30;;
6077;SDS011;3067;49.470;10.394;2024-03-23T13:55:33;2.23;;;2.00;;
6077;SDS011;3067;49.470;10.394;2024-03-23T13:58:02;2.70;;;2.03;;
6077;SDS011;3067;49.470;10.394;2024-03-23T14:00:29;3.67;;;2.40;;
6077;SDS011;3067;49.470;10.394;2024-03-23T14:02:57;9.10;;;2.13;;
6077;SDS011;3067;49.470;10.394;2024-03-23T14:05:23;3.67;;;2.80;;
6077;SDS011;3067;49.470;10.394;2024-03-23T14:07:50;3.83;;;2.70;;
6077;SDS011;3067;49.470;10.394;2024-03-23T14:10:16;2.97;;;2.30;;
6077;SDS011;3067;49.470;10.394;2024-03-23T14:12:43;3.70;;;2.23;;
6077;SDS011;3067;49.470;10.394;2024-03-23T14:15:11;7.20;;;2.90;;
6077;SDS011;3067;49.470;10.394;2024-03-23T14:17:38;9.10;;;2.70;;
6077;SDS011;3067;49.470;10.394;2024-03-23T14:20:05;3.17;;;2.10;;
6077;SDS011;3067;49.470;10.394;2024-03-23T14:22:36;3.30;;;1.97;;
6077;SDS011;3067;49.470;10.394;2024-03-23T14:25:02;6.00;;;2.07;;
6077;SDS011;3067;49.470;10.394;2024-03-23T14:27:29;2.90;;;2.60;;
6077;SDS011;3067;49.470;10.394;2024-03-23T14:29:55;6.10;;;2.63;;
6077;SDS011;3067;49.470;10.394;2024-03-23T14:32:24;4.20;;;3.20;;
6077;SDS011;3067;49.470;10.394;2024-03-23T14:34:51;5.70;;;2.60;;
6077;SDS011;3067;49.470;10.394;2024-03-23T14:37:19;4.10;;;3.10;;
6077;SDS011;3067;49.470;10.394;2024-03-23T14:39:46;3.23;;;2.73;;
6077;SDS011;3067;49.470;10.394;2024-03-23T14:42:12;8.00;;;3.30;;
6077;SDS011;3067;49.470;10.394;2024-03-23T14:44:39;3.97;;;2.70;;
6077;SDS011;3067;49.470;10.394;2024-03-23T14:47:05;5.20;;;2.53;;
6077;SDS011;3067;49.470;10.394;2024-03-23T14:49:34;6.40;;;2.77;;
6077;SDS011;3067;49.470;10.394;2024-03-23T14:52:01;3.57;;;2.50;;
6077;SDS011;3067;49.470;10.394;2024-03-23T14:54:28;2.63;;;2.37;;
6077;SDS011;3067;49.470;10.394;2024-03-23T14:56:54;4.67;;;2.20;;
6077;SDS011;3067;49.470;10.394;2024-03-23T14:59:23;4.37;;;2.27;;
6077;SDS011;3067;49.470;10.394;2024-03-23T15:01:49;4.10;;;2.20;;
6077;SDS011;3067;49.470;10.394;2024-03-23T15:04:16;4.57;;;1.90;;
6077;SDS011;3067;49.470;10.394;2024-03-23T15:06:43;2.70;;;1.70;;
6077;SDS011;3067;49.470;10.394;2024-03-23T15:09:11;2.30;;;1.80;;
6077;SDS011;3067;49.470;10.394;2024-03-23T15:11:39;5.10;;;2.10;;
6077;SDS011;3067;49.470;10.394;2024-03-23T15:14:06;1.90;;;1.50;;
6077;SDS011;3067;49.470;10.394;2024-03-23T15:16:32;1.90;;;1.80;;
6077;SDS011;3067;49.470;10.394;2024-03-23T15:18:59;3.50;;;2.00;;
6077;SDS011;3067;49.470;10.394;2024-03-23T15:21:26;4.20;;;1.80;;
6077;SDS011;3067;49.470;10.394;2024-03-23T15:23:55;2.23;;;1.90;;
6077;SDS011;3067;49.470;10.394;2024-03-23T15:26:22;3.93;;;1.80;;
6077;SDS011;3067;49.470;10.394;2024-03-23T15:28:48;4.60;;;1.53;;
6077;SDS011;3067;49.470;10.394;2024-03-23T15:31:29;3.17;;;1.80;;
6077;SDS011;3067;49.470;10.394;2024-03-23T15:33:56;4.20;;;1.30;;
6077;SDS011;3067;49.470;10.394;2024-03-23T15:36:22;3.33;;;1.27;;
6077;SDS011;3067;49.470;10.394;2024-03-23T15:38:49;1.60;;;1.50;;
6077;SDS011;3067;49.470;10.394;2024-03-23T15:41:16;1.63;;;1.40;;
6077;SDS011;3067;49.470;10.394;2024-03-23T15:43:44;3.73;;;1.73;;
6077;SDS011;3067;49.470;10.394;2024-03-23T15:46:10;3.30;;;1.40;;
6077;SDS011;3067;49.470;10.394;2024-03-23T15:48:39;1.33;;;1.03;;
6077;SDS011;3067;49.470;10.394;2024-03-23T15:51:05;1.03;;;0.93;;
6077;SDS011;3067;49.470;10.394;2024-03-23T15:53:32;1.63;;;1.20;;